Naikai2 — JD2433 — position and weather

sailwx.info

Track history (hours):
 
Tides and Currents Weather Stations Pressure Air Temp Water Temp Dewpoint Dewpoint Depression Visibility Wind Speed Wind Dir Waves Ship Positions

Naikai2

Last reported at 2015-May-29 04:33 UTC. Time now 2015-May-29 10:24 UTC.
Position N 34°38' E 135°11'.

Length 28 m; draft 2.2 m.

Type: Other ship. MMSI: 431000283.

Date/timePositionNaut miles runAvg speedWind from/ knotsBaromVisibWave heightAir tempDewpointWater temp
2015-May-29 04:33N 34°38' E 135°11'1211.4
2015-May-29 03:32N 34°33' E 135°24'5 5.0
2015-May-29 02:33N 34°33' E 135°18'7 6.6
2015-May-29 01:33N 34°39' E 135°13'3 3.3
2015-May-29 00:33N 34°37' E 135°10'8 8.4
2015-May-28 23:33N 34°38' E 134°60'1 0.1
2015-May-28 18:27N 34°38' E 135°00'8 8.6
2015-May-28 17:33N 34°34' E 135°08'1111.4
2015-May-28 16:33N 34°23' E 135°02'1211.8
2015-May-28 15:32N 34°12' E 134°60'6 5.7
2015-May-28 14:30N 34°17' E 134°59'1415.2
2015-May-28 13:33N 34°31' E 135°03'9 9.5
2015-May-28 12:33N 34°39' E 135°10'0 0.0
2015-May-27 03:33N 34°39' E 135°10'0 0.2
2015-May-27 02:33N 34°39' E 135°10'0 0.0
2015-May-27 01:33N 34°39' E 135°10'0 0.1
2015-May-27 00:33N 34°39' E 135°10'1 1.4
2015-May-26 23:33N 34°40' E 135°11'1110.9
2015-May-26 22:33N 34°37' E 134°58'9 9.0
2015-May-26 21:33N 34°37' E 135°09'2 1.9
2015-May-26 20:34N 34°39' E 135°10'4 0.4
2015-May-26 10:33N 34°36' E 135°09'1714.5
2015-May-26 09:23N 34°20' E 135°01'4 3.7
2015-May-26 08:25N 34°24' E 135°01'1112.8
2015-May-26 07:34N 34°33' E 135°07'10 9.5
2015-May-26 06:33N 34°36' E 134°55'4 1.5
2015-May-26 03:31N 34°36' E 135°01'0 0.0
2015-May-26 02:33N 34°36' E 135°01'0 0.0
2015-May-26 01:33N 34°36' E 135°01'0 0.0
2015-May-26 00:31N 34°36' E 135°01'2 2.4
2015-May-25 23:33N 34°36' E 135°03'6 6.1
2015-May-25 22:33N 34°39' E 135°10'  
2015-May-23 14:33N 34°35' E 135°08'1615.6
2015-May-23 13:33N 34°20' E 135°01'2 1.6
2015-May-23 12:30N 34°22' E 134°60'1313.4
2015-May-23 11:33N 34°33' E 135°06'7 0.2
2015-May-21 19:32N 34°37' E 134°59'8 8.4
2015-May-21 18:33N 34°34' E 135°08'1110.9
2015-May-21 17:33N 34°24' E 135°02'1313.0
2015-May-21 16:33N 34°11' E 134°59'7 7.2
2015-May-21 15:33N 34°19' E 134°59'1313.1
2015-May-21 14:33N 34°30' E 135°05'10 0.7
2015-May-20 23:34N 34°39' E 135°11'1 1.3
2015-May-20 22:33N 34°38' E 135°10'7 6.6
2015-May-20 21:28N 34°37' E 135°01'6 6.5
2015-May-20 20:33N 34°35' E 135°08'4 4.5
2015-May-20 19:33N 34°39' E 135°10'1 0.0
2015-May-19 11:33N 34°38' E 135°10'1515.3
2015-May-19 10:33N 34°24' E 135°01'5 5.1
2015-May-19 09:31N 34°19' E 134°59'1313.5
2015-May-19 08:32N 34°31' E 135°06'  
Track history (hours):
 
Tides and Currents Weather Stations Pressure Air Temp Water Temp Dewpoint Dewpoint Depression Visibility Wind Speed Wind Dir Waves Ship Positions

Naikai2

Last reported at 2015-May-29 04:33 UTC. Time now 2015-May-29 10:24 UTC.
Position N 34°38' E 135°11'.

Length 28 m; draft 2.2 m.

Type: Other ship. MMSI: 431000283.

Date/timePositionNaut miles runAvg speedWind from/ knotsBaromVisibWave heightAir tempDewpointWater temp
2015-May-29 04:33N 34°38' E 135°11'1211.4
2015-May-29 03:32N 34°33' E 135°24'5 5.0
2015-May-29 02:33N 34°33' E 135°18'7 6.6
2015-May-29 01:33N 34°39' E 135°13'3 3.3
2015-May-29 00:33N 34°37' E 135°10'8 8.4
2015-May-28 23:33N 34°38' E 134°60'1 0.1
2015-May-28 18:27N 34°38' E 135°00'8 8.6
2015-May-28 17:33N 34°34' E 135°08'1111.4
2015-May-28 16:33N 34°23' E 135°02'1211.8
2015-May-28 15:32N 34°12' E 134°60'6 5.7
2015-May-28 14:30N 34°17' E 134°59'1415.2
2015-May-28 13:33N 34°31' E 135°03'9 9.5
2015-May-28 12:33N 34°39' E 135°10'0 0.0
2015-May-27 03:33N 34°39' E 135°10'0 0.2
2015-May-27 02:33N 34°39' E 135°10'0 0.0
2015-May-27 01:33N 34°39' E 135°10'0 0.1
2015-May-27 00:33N 34°39' E 135°10'1 1.4
2015-May-26 23:33N 34°40' E 135°11'1110.9
2015-May-26 22:33N 34°37' E 134°58'9 9.0
2015-May-26 21:33N 34°37' E 135°09'2 1.9
2015-May-26 20:34N 34°39' E 135°10'4 0.4
2015-May-26 10:33N 34°36' E 135°09'1714.5
2015-May-26 09:23N 34°20' E 135°01'4 3.7
2015-May-26 08:25N 34°24' E 135°01'1112.8
2015-May-26 07:34N 34°33' E 135°07'10 9.5
2015-May-26 06:33N 34°36' E 134°55'4 1.5
2015-May-26 03:31N 34°36' E 135°01'0 0.0
2015-May-26 02:33N 34°36' E 135°01'0 0.0
2015-May-26 01:33N 34°36' E 135°01'0 0.0
2015-May-26 00:31N 34°36' E 135°01'2 2.4
2015-May-25 23:33N 34°36' E 135°03'6 6.1
2015-May-25 22:33N 34°39' E 135°10'  
2015-May-23 14:33N 34°35' E 135°08'1615.6
2015-May-23 13:33N 34°20' E 135°01'2 1.6
2015-May-23 12:30N 34°22' E 134°60'1313.4
2015-May-23 11:33N 34°33' E 135°06'7 0.2
2015-May-21 19:32N 34°37' E 134°59'8 8.4
2015-May-21 18:33N 34°34' E 135°08'1110.9
2015-May-21 17:33N 34°24' E 135°02'1313.0
2015-May-21 16:33N 34°11' E 134°59'7 7.2
2015-May-21 15:33N 34°19' E 134°59'1313.1
2015-May-21 14:33N 34°30' E 135°05'10 0.7
2015-May-20 23:34N 34°39' E 135°11'1 1.3
2015-May-20 22:33N 34°38' E 135°10'7 6.6
2015-May-20 21:28N 34°37' E 135°01'6 6.5
2015-May-20 20:33N 34°35' E 135°08'4 4.5
2015-May-20 19:33N 34°39' E 135°10'1 0.0
2015-May-19 11:33N 34°38' E 135°10'1515.3
2015-May-19 10:33N 34°24' E 135°01'5 5.1
2015-May-19 09:31N 34°19' E 134°59'1313.5
2015-May-19 08:32N 34°31' E 135°06'  

Dump ship's entire track history